sensor_id;sensor_type;location;lat;lon;timestamp;pressure;altitude;pressure_sealevel;temperature;humidity
27210;BME280;14721;42.668;23.386;2023-12-14T00:13:10;94315.69;;;5.88;99.39
27210;BME280;14721;42.668;23.386;2023-12-14T00:15:53;94332.19;;;6.04;99.87
27210;BME280;14721;42.668;23.386;2023-12-14T00:21:35;94333.16;;;5.78;99.43
27210;BME280;14721;42.668;23.386;2023-12-14T00:24:21;94329.38;;;5.69;99.71
27210;BME280;14721;42.668;23.386;2023-12-14T00:26:47;94368.72;;;5.88;100.00
27210;BME280;14721;42.668;23.386;2023-12-14T00:29:12;94332.94;;;5.81;100.00
27210;BME280;14721;42.668;23.386;2023-12-14T00:31:38;94352.81;;;5.88;100.00
27210;BME280;14721;42.668;23.386;2023-12-14T00:34:24;94301.41;;;5.53;100.00
27210;BME280;14721;42.668;23.386;2023-12-14T00:37:30;94287.03;;;5.44;100.00
27210;BME280;14721;42.668;23.386;2023-12-14T00:40:16;94351.31;;;5.84;100.00
27210;BME280;14721;42.668;23.386;2023-12-14T00:48:46;94378.75;;;5.96;100.00
27210;BME280;14721;42.668;23.386;2023-12-14T00:51:29;94351.41;;;5.82;100.00
27210;BME280;14721;42.668;23.386;2023-12-14T00:54:45;94331.16;;;5.69;100.00
27210;BME280;14721;42.668;23.386;2023-12-14T00:57:26;94325.94;;;5.80;100.00
27210;BME280;14721;42.668;23.386;2023-12-14T00:59:52;94345.06;;;5.85;100.00
27210;BME280;14721;42.668;23.386;2023-12-14T01:02:17;94352.38;;;5.82;100.00
27210;BME280;14721;42.668;23.386;2023-12-14T01:05:08;94328.50;;;5.69;100.00
27210;BME280;14721;42.668;23.386;2023-12-14T01:08:12;94328.94;;;5.63;100.00
27210;BME280;14721;42.668;23.386;2023-12-14T01:10:48;94386.41;;;5.88;100.00
27210;BME280;14721;42.668;23.386;2023-12-14T01:13:16;94326.50;;;5.72;100.00
27210;BME280;14721;42.668;23.386;2023-12-14T01:15:42;94328.63;;;5.67;100.00
27210;BME280;14721;42.668;23.386;2023-12-14T01:18:08;94315.28;;;5.82;100.00
27210;BME280;14721;42.668;23.386;2023-12-14T01:20:58;94334.69;;;5.57;100.00
27210;BME280;14721;42.668;23.386;2023-12-14T01:23:47;94294.25;;;5.17;100.00
27210;BME280;14721;42.668;23.386;2023-12-14T01:29:32;94348.13;;;5.66;100.00
27210;BME280;14721;42.668;23.386;2023-12-14T01:32:00;94354.63;;;5.62;100.00
27210;BME280;14721;42.668;23.386;2023-12-14T01:34:34;94332.78;;;5.59;100.00
27210;BME280;14721;42.668;23.386;2023-12-14T01:37:08;94263.75;;;5.37;100.00
27210;BME280;14721;42.668;23.386;2023-12-14T01:39:53;94268.59;;;5.30;100.00
27210;BME280;14721;42.668;23.386;2023-12-14T01:43:12;94345.91;;;5.86;100.00
27210;BME280;14721;42.668;23.386;2023-12-14T01:45:50;94290.13;;;5.38;100.00
27210;BME280;14721;42.668;23.386;2023-12-14T01:48:16;94330.50;;;5.78;100.00
27210;BME280;14721;42.668;23.386;2023-12-14T01:50:41;94289.63;;;5.57;100.00
27210;BME280;14721;42.668;23.386;2023-12-14T01:53:07;94323.00;;;5.72;100.00
27210;BME280;14721;42.668;23.386;2023-12-14T01:55:42;94303.50;;;5.73;100.00
27210;BME280;14721;42.668;23.386;2023-12-14T02:04:01;94335.97;;;5.64;100.00
27210;BME280;14721;42.668;23.386;2023-12-14T02:06:26;94326.59;;;5.71;100.00
27210;BME280;14721;42.668;23.386;2023-12-14T02:08:52;94338.47;;;5.78;100.00
27210;BME280;14721;42.668;23.386;2023-12-14T02:11:19;94317.59;;;5.73;100.00
27210;BME280;14721;42.668;23.386;2023-12-14T02:13:45;94299.88;;;5.74;100.00
27210;BME280;14721;42.668;23.386;2023-12-14T02:16:13;94288.91;;;5.55;100.00
27210;BME280;14721;42.668;23.386;2023-12-14T02:18:52;94297.38;;;5.60;100.00
27210;BME280;14721;42.668;23.386;2023-12-14T02:27:27;94342.53;;;5.84;100.00
27210;BME280;14721;42.668;23.386;2023-12-14T02:30:14;94275.06;;;5.75;100.00
27210;BME280;14721;42.668;23.386;2023-12-14T02:32:46;94268.56;;;5.55;100.00
27210;BME280;14721;42.668;23.386;2023-12-14T02:35:14;94263.66;;;5.62;100.00
27210;BME280;14721;42.668;23.386;2023-12-14T02:38:06;94221.38;;;5.37;100.00
27210;BME280;14721;42.668;23.386;2023-12-14T02:41:33;94271.53;;;5.51;100.00
27210;BME280;14721;42.668;23.386;2023-12-14T02:53:36;94300.13;;;5.58;100.00
27210;BME280;14721;42.668;23.386;2023-12-14T02:56:12;94320.22;;;5.73;100.00
27210;BME280;14721;42.668;23.386;2023-12-14T02:58:38;94263.09;;;5.21;100.00
27210;BME280;14721;42.668;23.386;2023-12-14T03:01:34;94228.88;;;5.30;100.00
27210;BME280;14721;42.668;23.386;2023-12-14T03:04:10;94272.16;;;5.67;100.00
27210;BME280;14721;42.668;23.386;2023-12-14T03:06:49;94293.72;;;5.73;100.00
27210;BME280;14721;42.668;23.386;2023-12-14T03:09:41;94230.41;;;5.58;100.00
27210;BME280;14721;42.668;23.386;2023-12-14T03:12:17;94319.25;;;6.00;100.00
27210;BME280;14721;42.668;23.386;2023-12-14T03:14:43;94272.28;;;6.02;99.69
27210;BME280;14721;42.668;23.386;2023-12-14T03:17:08;94315.81;;;6.10;100.00
27210;BME280;14721;42.668;23.386;2023-12-14T03:19:57;94248.44;;;5.89;99.28
27210;BME280;14721;42.668;23.386;2023-12-14T03:22:33;94263.91;;;5.95;99.53
27210;BME280;14721;42.668;23.386;2023-12-14T03:25:29;94288.81;;;6.29;98.70
27210;BME280;14721;42.668;23.386;2023-12-14T03:28:00;94271.28;;;6.26;98.91
27210;BME280;14721;42.668;23.386;2023-12-14T03:30:45;94226.88;;;6.06;98.12
27210;BME280;14721;42.668;23.386;2023-12-14T03:33:16;94297.69;;;6.28;98.03
27210;BME280;14721;42.668;23.386;2023-12-14T03:35:59;94260.47;;;6.29;97.93
27210;BME280;14721;42.668;23.386;2023-12-14T03:38:25;94290.09;;;6.23;98.23
27210;BME280;14721;42.668;23.386;2023-12-14T03:40:51;94260.22;;;6.32;97.78
27210;BME280;14721;42.668;23.386;2023-12-14T03:43:19;94270.69;;;6.23;97.72
27210;BME280;14721;42.668;23.386;2023-12-14T03:50:19;94271.63;;;6.22;98.89
27210;BME280;14721;42.668;23.386;2023-12-14T03:56:45;94259.69;;;6.16;98.33
27210;BME280;14721;42.668;23.386;2023-12-14T03:59:53;94260.50;;;6.40;98.34
27210;BME280;14721;42.668;23.386;2023-12-14T04:12:30;94294.78;;;6.43;97.44
27210;BME280;14721;42.668;23.386;2023-12-14T04:15:18;94226.56;;;5.98;97.58
27210;BME280;14721;42.668;23.386;2023-12-14T04:17:54;94255.34;;;6.15;98.04
27210;BME280;14721;42.668;23.386;2023-12-14T04:20:29;94224.16;;;5.95;97.90
27210;BME280;14721;42.668;23.386;2023-12-14T04:23:17;94250.31;;;6.23;97.91
27210;BME280;14721;42.668;23.386;2023-12-14T04:26:05;94283.97;;;6.23;97.83
27210;BME280;14721;42.668;23.386;2023-12-14T04:35:26;94241.81;;;6.07;98.22
27210;BME280;14721;42.668;23.386;2023-12-14T04:40:47;94277.06;;;6.20;98.72
27210;BME280;14721;42.668;23.386;2023-12-14T04:43:23;94269.22;;;6.19;99.07
27210;BME280;14721;42.668;23.386;2023-12-14T04:46:12;94287.72;;;6.31;99.07
27210;BME280;14721;42.668;23.386;2023-12-14T04:56:09;94265.88;;;6.62;97.57
27210;BME280;14721;42.668;23.386;2023-12-14T05:14:25;94277.63;;;5.89;99.14
27210;BME280;14721;42.668;23.386;2023-12-14T05:30:10;94215.34;;;5.22;100.00
27210;BME280;14721;42.668;23.386;2023-12-14T05:35:59;94314.31;;;5.82;100.00
27210;BME280;14721;42.668;23.386;2023-12-14T05:38:44;94265.66;;;5.71;100.00
27210;BME280;14721;42.668;23.386;2023-12-14T05:41:21;94331.81;;;5.72;100.00
27210;BME280;14721;42.668;23.386;2023-12-14T05:57:07;94306.25;;;5.84;100.00
27210;BME280;14721;42.668;23.386;2023-12-14T05:59:43;94266.44;;;5.60;100.00
27210;BME280;14721;42.668;23.386;2023-12-14T06:02:08;94284.81;;;5.87;100.00
27210;BME280;14721;42.668;23.386;2023-12-14T06:04:34;94296.69;;;5.94;100.00
27210;BME280;14721;42.668;23.386;2023-12-14T06:07:02;94309.06;;;6.06;100.00
27210;BME280;14721;42.668;23.386;2023-12-14T06:09:54;94323.53;;;5.90;100.00
27210;BME280;14721;42.668;23.386;2023-12-14T06:12:30;94284.09;;;5.85;100.00
27210;BME280;14721;42.668;23.386;2023-12-14T06:14:59;94320.03;;;6.13;100.00
27210;BME280;14721;42.668;23.386;2023-12-14T06:17:24;94289.97;;;6.01;100.00
27210;BME280;14721;42.668;23.386;2023-12-14T06:22:39;94275.31;;;6.08;99.62
27210;BME280;14721;42.668;23.386;2023-12-14T06:25:05;94347.09;;;6.18;99.27
27210;BME280;14721;42.668;23.386;2023-12-14T06:27:33;94347.06;;;6.30;99.36
27210;BME280;14721;42.668;23.386;2023-12-14T06:32:54;94326.44;;;6.57;97.99
27210;BME280;14721;42.668;23.386;2023-12-14T06:35:19;94306.41;;;6.30;97.81
27210;BME280;14721;42.668;23.386;2023-12-14T06:37:46;94335.06;;;6.72;97.71
27210;BME280;14721;42.668;23.386;2023-12-14T06:40:16;94349.59;;;6.55;97.09
27210;BME280;14721;42.668;23.386;2023-12-14T06:42:47;94330.84;;;6.69;97.06
27210;BME280;14721;42.668;23.386;2023-12-14T06:45:17;94320.22;;;6.46;96.32
27210;BME280;14721;42.668;23.386;2023-12-14T06:47:53;94339.19;;;6.52;96.49
27210;BME280;14721;42.668;23.386;2023-12-14T06:50:36;94374.03;;;6.71;97.14
27210;BME280;14721;42.668;23.386;2023-12-14T06:53:33;94366.16;;;6.93;96.27
27210;BME280;14721;42.668;23.386;2023-12-14T07:02:53;94362.06;;;7.00;95.11
27210;BME280;14721;42.668;23.386;2023-12-14T07:05:57;94361.53;;;7.30;94.87
27210;BME280;14721;42.668;23.386;2023-12-14T07:14:33;94340.69;;;7.81;90.93
27210;BME280;14721;42.668;23.386;2023-12-14T07:17:01;94327.41;;;7.58;90.49
27210;BME280;14721;42.668;23.386;2023-12-14T07:19:26;94365.22;;;7.73;90.47
27210;BME280;14721;42.668;23.386;2023-12-14T07:25:15;94376.84;;;8.16;89.09
27210;BME280;14721;42.668;23.386;2023-12-14T07:27:40;94319.88;;;8.08;88.10
27210;BME280;14721;42.668;23.386;2023-12-14T07:33:43;94343.41;;;8.56;85.72
27210;BME280;14721;42.668;23.386;2023-12-14T07:36:09;94377.75;;;8.70;85.53
27210;BME280;14721;42.668;23.386;2023-12-14T07:38:36;94368.41;;;8.76;85.32
27210;BME280;14721;42.668;23.386;2023-12-14T07:41:02;94388.94;;;8.85;84.54
27210;BME280;14721;42.668;23.386;2023-12-14T07:43:30;94379.78;;;8.67;84.92
27210;BME280;14721;42.668;23.386;2023-12-14T07:45:55;94383.38;;;8.88;84.96
27210;BME280;14721;42.668;23.386;2023-12-14T07:48:39;94362.91;;;8.88;84.13
27210;BME280;14721;42.668;23.386;2023-12-14T07:51:34;94391.38;;;9.40;82.81
27210;BME280;14721;42.668;23.386;2023-12-14T08:07:43;94400.34;;;9.59;80.93
27210;BME280;14721;42.668;23.386;2023-12-14T08:10:26;94419.94;;;9.90;80.43
27210;BME280;14721;42.668;23.386;2023-12-14T08:37:45;94303.84;;;10.35;76.53
27210;BME280;14721;42.668;23.386;2023-12-14T08:40:33;94390.03;;;11.15;74.90
27210;BME280;14721;42.668;23.386;2023-12-14T08:43:01;94366.66;;;11.07;73.63
27210;BME280;14721;42.668;23.386;2023-12-14T08:52:07;94373.06;;;10.76;74.32
27210;BME280;14721;42.668;23.386;2023-12-14T08:54:50;94381.91;;;10.58;75.06
27210;BME280;14721;42.668;23.386;2023-12-14T08:57:58;94361.81;;;10.82;74.31
27210;BME280;14721;42.668;23.386;2023-12-14T09:03:19;94369.31;;;10.98;73.67
27210;BME280;14721;42.668;23.386;2023-12-14T09:06:07;94411.53;;;11.52;72.34
27210;BME280;14721;42.668;23.386;2023-12-14T09:08:36;94399.31;;;11.59;72.41
27210;BME280;14721;42.668;23.386;2023-12-14T09:11:23;94390.75;;;11.65;71.79
27210;BME280;14721;42.668;23.386;2023-12-14T09:14:07;94400.75;;;11.72;71.32
27210;BME280;14721;42.668;23.386;2023-12-14T09:23:04;94398.16;;;11.90;70.23
27210;BME280;14721;42.668;23.386;2023-12-14T09:26:17;94350.00;;;11.61;70.69
27210;BME280;14721;42.668;23.386;2023-12-14T09:29:00;94354.97;;;12.12;69.58
27210;BME280;14721;42.668;23.386;2023-12-14T09:31:41;94358.25;;;12.06;69.24
27210;BME280;14721;42.668;23.386;2023-12-14T09:37:09;94304.19;;;11.93;69.85
27210;BME280;14721;42.668;23.386;2023-12-14T09:42:59;94371.09;;;12.39;67.47
27210;BME280;14721;42.668;23.386;2023-12-14T09:45:44;94393.34;;;12.49;69.05
27210;BME280;14721;42.668;23.386;2023-12-14T09:48:27;94404.28;;;12.55;68.00
27210;BME280;14721;42.668;23.386;2023-12-14T09:50:56;94420.06;;;12.58;68.81
27210;BME280;14721;42.668;23.386;2023-12-14T09:53:22;94367.81;;;12.45;67.95
27210;BME280;14721;42.668;23.386;2023-12-14T09:56:29;94398.94;;;12.82;66.88
27210;BME280;14721;42.668;23.386;2023-12-14T09:59:07;94420.41;;;13.09;66.29
27210;BME280;14721;42.668;23.386;2023-12-14T10:01:43;94402.34;;;13.11;66.12
27210;BME280;14721;42.668;23.386;2023-12-14T10:04:21;94428.09;;;13.22;66.37
27210;BME280;14721;42.668;23.386;2023-12-14T10:06:57;94417.91;;;13.25;66.10
27210;BME280;14721;42.668;23.386;2023-12-14T10:10:09;94412.16;;;13.38;65.20
27210;BME280;14721;42.668;23.386;2023-12-14T10:12:31;94379.72;;;13.14;65.67
27210;BME280;14721;42.668;23.386;2023-12-14T10:15:06;94428.47;;;13.27;65.47
27210;BME280;14721;42.668;23.386;2023-12-14T10:17:32;94423.97;;;13.27;65.40
27210;BME280;14721;42.668;23.386;2023-12-14T10:20:02;94411.72;;;13.25;64.76
27210;BME280;14721;42.668;23.386;2023-12-14T10:22:45;94370.47;;;12.81;65.41
27210;BME280;14721;42.668;23.386;2023-12-14T10:25:23;94362.78;;;12.86;65.34
27210;BME280;14721;42.668;23.386;2023-12-14T10:27:55;94419.91;;;13.23;64.81
27210;BME280;14721;42.668;23.386;2023-12-14T10:33:37;94393.28;;;13.12;64.40
27210;BME280;14721;42.668;23.386;2023-12-14T10:36:49;94359.34;;;12.94;64.17
27210;BME280;14721;42.668;23.386;2023-12-14T10:39:37;94403.75;;;13.06;64.62
27210;BME280;14721;42.668;23.386;2023-12-14T10:42:20;94432.75;;;13.20;64.43
27210;BME280;14721;42.668;23.386;2023-12-14T10:44:49;94434.06;;;13.16;65.42
27210;BME280;14721;42.668;23.386;2023-12-14T10:47:23;94395.38;;;12.91;65.73
27210;BME280;14721;42.668;23.386;2023-12-14T10:49:57;94438.88;;;13.12;64.93
27210;BME280;14721;42.668;23.386;2023-12-14T10:52:54;94429.22;;;12.92;65.12
27210;BME280;14721;42.668;23.386;2023-12-14T10:55:40;94434.06;;;12.89;65.21
27210;BME280;14721;42.668;23.386;2023-12-14T10:58:24;94449.06;;;12.82;65.02
27210;BME280;14721;42.668;23.386;2023-12-14T11:01:22;94478.53;;;12.82;65.99
27210;BME280;14721;42.668;23.386;2023-12-14T11:04:10;94430.16;;;12.47;67.44
27210;BME280;14721;42.668;23.386;2023-12-14T11:07:06;94479.28;;;12.74;71.35
27210;BME280;14721;42.668;23.386;2023-12-14T11:16:41;94481.78;;;12.30;78.58
27210;BME280;14721;42.668;23.386;2023-12-14T11:22:27;94464.38;;;11.97;78.96
27210;BME280;14721;42.668;23.386;2023-12-14T11:24:59;94490.31;;;11.87;79.66
27210;BME280;14721;42.668;23.386;2023-12-14T11:27:45;94436.63;;;11.31;79.26
27210;BME280;14721;42.668;23.386;2023-12-14T11:30:46;94476.19;;;11.37;79.92
27210;BME280;14721;42.668;23.386;2023-12-14T11:33:33;94522.22;;;11.51;79.36
27210;BME280;14721;42.668;23.386;2023-12-14T11:39:40;94481.44;;;10.99;79.33
27210;BME280;14721;42.668;23.386;2023-12-14T11:42:19;94499.69;;;10.94;78.90
27210;BME280;14721;42.668;23.386;2023-12-14T11:44:58;94505.19;;;10.93;78.77
27210;BME280;14721;42.668;23.386;2023-12-14T11:47:23;94519.72;;;11.00;78.52
27210;BME280;14721;42.668;23.386;2023-12-14T11:49:49;94502.16;;;10.77;78.51
27210;BME280;14721;42.668;23.386;2023-12-14T11:52:24;94527.50;;;10.82;78.41
27210;BME280;14721;42.668;23.386;2023-12-14T11:54:49;94533.22;;;10.68;78.78
27210;BME280;14721;42.668;23.386;2023-12-14T11:57:18;94543.25;;;10.55;78.34
27210;BME280;14721;42.668;23.386;2023-12-14T11:59:46;94536.81;;;10.58;78.65
27210;BME280;14721;42.668;23.386;2023-12-14T12:20:33;94574.56;;;10.23;79.93
27210;BME280;14721;42.668;23.386;2023-12-14T12:23:22;94541.75;;;10.12;80.02
27210;BME280;14721;42.668;23.386;2023-12-14T12:25:57;94564.25;;;10.19;79.68
27210;BME280;14721;42.668;23.386;2023-12-14T12:35:05;94545.31;;;9.90;80.38
27210;BME280;14721;42.668;23.386;2023-12-14T12:37:50;94514.59;;;9.75;80.82
27210;BME280;14721;42.668;23.386;2023-12-14T12:40:29;94514.22;;;9.80;80.22
27210;BME280;14721;42.668;23.386;2023-12-14T12:43:02;94517.41;;;9.74;80.73
27210;BME280;14721;42.668;23.386;2023-12-14T12:45:47;94587.72;;;10.04;80.45
27210;BME280;14721;42.668;23.386;2023-12-14T12:48:53;94490.31;;;9.57;80.17
27210;BME280;14721;42.668;23.386;2023-12-14T12:51:33;94488.44;;;9.37;80.69
27210;BME280;14721;42.668;23.386;2023-12-14T13:00:33;94543.44;;;9.38;82.27
27210;BME280;14721;42.668;23.386;2023-12-14T13:03:03;94556.03;;;9.47;83.15
27210;BME280;14721;42.668;23.386;2023-12-14T13:05:38;94568.41;;;9.48;83.24
27210;BME280;14721;42.668;23.386;2023-12-14T13:08:04;94566.25;;;9.42;83.69
27210;BME280;14721;42.668;23.386;2023-12-14T13:10:33;94595.16;;;9.58;83.20
27210;BME280;14721;42.668;23.386;2023-12-14T13:12:59;94581.25;;;9.54;83.66
27210;BME280;14721;42.668;23.386;2023-12-14T13:15:28;94552.31;;;9.39;83.35
27210;BME280;14721;42.668;23.386;2023-12-14T13:17:56;94564.66;;;9.40;83.75
27210;BME280;14721;42.668;23.386;2023-12-14T13:20:22;94570.00;;;9.40;83.66
27210;BME280;14721;42.668;23.386;2023-12-14T13:22:55;94535.13;;;9.32;83.71
27210;BME280;14721;42.668;23.386;2023-12-14T13:25:41;94580.63;;;9.51;83.51
27210;BME280;14721;42.668;23.386;2023-12-14T13:28:19;94541.84;;;9.15;83.52
27210;BME280;14721;42.668;23.386;2023-12-14T13:30:45;94579.09;;;9.37;83.82
27210;BME280;14721;42.668;23.386;2023-12-14T13:33:31;94590.63;;;9.38;82.82
27210;BME280;14721;42.668;23.386;2023-12-14T13:36:17;94579.59;;;9.31;82.66
27210;BME280;14721;42.668;23.386;2023-12-14T13:38:43;94562.53;;;9.12;82.57
27210;BME280;14721;42.668;23.386;2023-12-14T13:41:14;94560.59;;;9.14;83.00
27210;BME280;14721;42.668;23.386;2023-12-14T13:43:40;94538.22;;;8.94;83.55
27210;BME280;14721;42.668;23.386;2023-12-14T13:46:08;94572.69;;;9.18;83.82
27210;BME280;14721;42.668;23.386;2023-12-14T13:48:36;94576.09;;;9.20;83.46
27210;BME280;14721;42.668;23.386;2023-12-14T13:51:04;94563.28;;;9.03;83.31
27210;BME280;14721;42.668;23.386;2023-12-14T13:53:37;94576.97;;;9.09;83.05
27210;BME280;14721;42.668;23.386;2023-12-14T13:56:03;94560.25;;;8.96;83.29
27210;BME280;14721;42.668;23.386;2023-12-14T13:58:50;94557.13;;;8.91;82.89
27210;BME280;14721;42.668;23.386;2023-12-14T14:01:35;94550.81;;;8.92;82.64
27210;BME280;14721;42.668;23.386;2023-12-14T14:07:47;94600.22;;;8.96;82.80
27210;BME280;14721;42.668;23.386;2023-12-14T14:26:36;94532.91;;;8.50;81.92
27210;BME280;14721;42.668;23.386;2023-12-14T14:29:43;94553.63;;;8.69;81.80
27210;BME280;14721;42.668;23.386;2023-12-14T14:32:42;94596.34;;;8.89;81.13
27210;BME280;14721;42.668;23.386;2023-12-14T14:41:41;94554.69;;;8.44;80.41
27210;BME280;14721;42.668;23.386;2023-12-14T14:44:17;94590.53;;;8.62;80.06
27210;BME280;14721;42.668;23.386;2023-12-14T14:46:46;94541.25;;;8.46;79.88
27210;BME280;14721;42.668;23.386;2023-12-14T14:52:45;94603.38;;;8.79;79.73
27210;BME280;14721;42.668;23.386;2023-12-14T14:55:36;94537.75;;;8.45;79.83
27210;BME280;14721;42.668;23.386;2023-12-14T14:58:04;94630.63;;;8.94;80.33
27210;BME280;14721;42.668;23.386;2023-12-14T15:00:30;94590.53;;;8.84;80.25
27210;BME280;14721;42.668;23.386;2023-12-14T15:02:57;94620.78;;;9.05;80.15
27210;BME280;14721;42.668;23.386;2023-12-14T15:05:33;94570.91;;;8.63;80.05
27210;BME280;14721;42.668;23.386;2023-12-14T15:07:59;94624.53;;;8.92;80.58
27210;BME280;14721;42.668;23.386;2023-12-14T15:10:52;94596.81;;;8.72;80.73
27210;BME280;14721;42.668;23.386;2023-12-14T15:13:39;94610.88;;;8.85;80.89
27210;BME280;14721;42.668;23.386;2023-12-14T15:16:13;94603.00;;;8.84;80.32
27210;BME280;14721;42.668;23.386;2023-12-14T15:19:08;94567.03;;;8.56;81.08
27210;BME280;14721;42.668;23.386;2023-12-14T15:22:00;94596.94;;;8.60;81.79
27210;BME280;14721;42.668;23.386;2023-12-14T15:24:38;94574.00;;;8.24;82.45
27210;BME280;14721;42.668;23.386;2023-12-14T15:27:07;94593.41;;;8.37;82.71
27210;BME280;14721;42.668;23.386;2023-12-14T15:29:43;94625.25;;;8.61;83.50
27210;BME280;14721;42.668;23.386;2023-12-14T15:32:09;94607.06;;;8.44;83.68
27210;BME280;14721;42.668;23.386;2023-12-14T15:34:35;94606.94;;;8.34;84.34
27210;BME280;14721;42.668;23.386;2023-12-14T15:37:04;94625.94;;;8.41;84.96
27210;BME280;14721;42.668;23.386;2023-12-14T15:39:33;94607.06;;;8.33;84.80
27210;BME280;14721;42.668;23.386;2023-12-14T15:41:59;94619.16;;;8.37;85.12
27210;BME280;14721;42.668;23.386;2023-12-14T15:44:37;94622.56;;;8.39;85.42
27210;BME280;14721;42.668;23.386;2023-12-14T15:47:05;94596.88;;;8.27;84.96
27210;BME280;14721;42.668;23.386;2023-12-14T15:49:38;94632.31;;;8.27;85.93
27210;BME280;14721;42.668;23.386;2023-12-14T15:52:19;94661.88;;;8.35;86.36
27210;BME280;14721;42.668;23.386;2023-12-14T15:54:46;94649.88;;;8.30;86.34
27210;BME280;14721;42.668;23.386;2023-12-14T15:57:24;94640.41;;;8.26;86.91
27210;BME280;14721;42.668;23.386;2023-12-14T16:00:05;94667.94;;;8.48;87.26
27210;BME280;14721;42.668;23.386;2023-12-14T16:02:41;94627.25;;;8.35;87.04
27210;BME280;14721;42.668;23.386;2023-12-14T16:05:09;94576.94;;;7.98;87.85
27210;BME280;14721;42.668;23.386;2023-12-14T16:07:35;94648.41;;;8.26;88.50
27210;BME280;14721;42.668;23.386;2023-12-14T16:10:02;94653.16;;;8.10;89.08
27210;BME280;14721;42.668;23.386;2023-12-14T16:12:47;94652.16;;;8.00;89.78
27210;BME280;14721;42.668;23.386;2023-12-14T16:15:25;94664.78;;;8.09;90.09
27210;BME280;14721;42.668;23.386;2023-12-14T16:17:57;94619.19;;;7.79;90.94
27210;BME280;14721;42.668;23.386;2023-12-14T16:20:29;94693.75;;;8.24;90.65
27210;BME280;14721;42.668;23.386;2023-12-14T16:22:55;94655.75;;;7.99;91.36
27210;BME280;14721;42.668;23.386;2023-12-14T16:25:21;94678.66;;;8.01;92.41
27210;BME280;14721;42.668;23.386;2023-12-14T16:27:46;94660.41;;;7.84;93.33
27210;BME280;14721;42.668;23.386;2023-12-14T16:30:12;94649.56;;;7.63;94.45
27210;BME280;14721;42.668;23.386;2023-12-14T16:32:38;94683.56;;;7.71;96.01
27210;BME280;14721;42.668;23.386;2023-12-14T16:35:04;94699.41;;;7.72;97.46
27210;BME280;14721;42.668;23.386;2023-12-14T16:37:32;94716.50;;;7.81;98.36
27210;BME280;14721;42.668;23.386;2023-12-14T16:39:58;94711.03;;;7.59;99.66
27210;BME280;14721;42.668;23.386;2023-12-14T16:42:24;94694.19;;;7.47;100.00
27210;BME280;14721;42.668;23.386;2023-12-14T16:44:49;94704.97;;;7.57;100.00
27210;BME280;14721;42.668;23.386;2023-12-14T16:47:15;94691.84;;;7.43;100.00
27210;BME280;14721;42.668;23.386;2023-12-14T16:49:41;94731.72;;;7.43;100.00
27210;BME280;14721;42.668;23.386;2023-12-14T16:52:06;94746.09;;;7.28;100.00
27210;BME280;14721;42.668;23.386;2023-12-14T16:54:33;94761.06;;;7.41;100.00
27210;BME280;14721;42.668;23.386;2023-12-14T16:56:59;94747.03;;;7.27;100.00
27210;BME280;14721;42.668;23.386;2023-12-14T16:59:24;94761.72;;;7.32;100.00
27210;BME280;14721;42.668;23.386;2023-12-14T17:01:50;94744.31;;;7.16;100.00
27210;BME280;14721;42.668;23.386;2023-12-14T17:04:18;94721.34;;;6.90;100.00
27210;BME280;14721;42.668;23.386;2023-12-14T17:06:45;94731.88;;;6.91;100.00
27210;BME280;14721;42.668;23.386;2023-12-14T17:09:12;94767.16;;;6.93;100.00
27210;BME280;14721;42.668;23.386;2023-12-14T17:11:37;94790.84;;;6.96;100.00
27210;BME280;14721;42.668;23.386;2023-12-14T17:14:03;94771.91;;;6.88;100.00
27210;BME280;14721;42.668;23.386;2023-12-14T17:16:40;94777.31;;;6.87;100.00
27210;BME280;14721;42.668;23.386;2023-12-14T17:19:06;94783.59;;;6.86;100.00
27210;BME280;14721;42.668;23.386;2023-12-14T17:21:33;94768.63;;;6.72;100.00
27210;BME280;14721;42.668;23.386;2023-12-14T17:23:59;94793.38;;;6.85;100.00
27210;BME280;14721;42.668;23.386;2023-12-14T17:26:26;94774.13;;;6.69;100.00
27210;BME280;14721;42.668;23.386;2023-12-14T17:28:54;94806.75;;;6.84;100.00
27210;BME280;14721;42.668;23.386;2023-12-14T17:31:21;94812.16;;;6.82;100.00
27210;BME280;14721;42.668;23.386;2023-12-14T17:33:47;94802.72;;;6.78;100.00
27210;BME280;14721;42.668;23.386;2023-12-14T17:36:13;94782.72;;;6.73;100.00
27210;BME280;14721;42.668;23.386;2023-12-14T17:38:39;94815.56;;;6.97;100.00
27210;BME280;14721;42.668;23.386;2023-12-14T17:41:09;94811.19;;;6.83;100.00
27210;BME280;14721;42.668;23.386;2023-12-14T17:43:36;94803.75;;;6.63;100.00
27210;BME280;14721;42.668;23.386;2023-12-14T17:46:02;94841.50;;;6.93;100.00
27210;BME280;14721;42.668;23.386;2023-12-14T17:48:29;94817.44;;;6.70;100.00
27210;BME280;14721;42.668;23.386;2023-12-14T17:50:54;94831.91;;;6.78;100.00
27210;BME280;14721;42.668;23.386;2023-12-14T17:53:25;94857.00;;;6.87;100.00
27210;BME280;14721;42.668;23.386;2023-12-14T17:56:07;94805.91;;;6.44;100.00
27210;BME280;14721;42.668;23.386;2023-12-14T17:58:33;94824.44;;;6.58;100.00
27210;BME280;14721;42.668;23.386;2023-12-14T18:01:01;94838.66;;;6.70;100.00
27210;BME280;14721;42.668;23.386;2023-12-14T18:03:28;94805.69;;;6.47;100.00
27210;BME280;14721;42.668;23.386;2023-12-14T18:05:56;94860.06;;;6.81;100.00
27210;BME280;14721;42.668;23.386;2023-12-14T18:08:29;94779.88;;;6.24;100.00
27210;BME280;14721;42.668;23.386;2023-12-14T18:11:05;94861.84;;;6.80;100.00
27210;BME280;14721;42.668;23.386;2023-12-14T18:13:33;94867.63;;;6.87;100.00
27210;BME280;14721;42.668;23.386;2023-12-14T18:15:58;94825.72;;;6.65;100.00
27210;BME280;14721;42.668;23.386;2023-12-14T18:18:24;94817.53;;;6.68;100.00
27210;BME280;14721;42.668;23.386;2023-12-14T18:20:50;94843.06;;;6.83;100.00
27210;BME280;14721;42.668;23.386;2023-12-14T18:23:15;94824.78;;;6.66;100.00
27210;BME280;14721;42.668;23.386;2023-12-14T18:25:42;94845.03;;;6.67;100.00
27210;BME280;14721;42.668;23.386;2023-12-14T18:28:11;94872.06;;;6.86;100.00